Airfield :
LOGIN :

Register | Disclaimer

   EN    FR    IT 

 










Legend :    VFR   Marginal VFR   IFR   Intensive IFR   Very Intensive IFR
Visi :
Ceiling :
>= 8 km
>= 3000ft
5 to 8 km
1000 to 3000 ft
1500m to 5 km
500 to 1000 ft
800 to 1500m
200 to 500 ft
< 800m
< 200 ft
Symbols :   Thunderstorms  Fog  Heavy snow  Heavy precipitations  Wind > 20 kt
SIGMETs :     Misc.  Thunderstorms  Icing  Turbulence  Mountain Waves  Volcanic Ashes






- Airport Elevation : 140 ft


ESTL - Ljungbyhed

CURRENT METAR :
  • 071420Z AUTO 32019KT 9999 NCD 13/01 Q1031

EXPIRED METARs :
  • 071350Z 31020KT CAVOK 13/02 Q1031
  • 071320Z 31019KT CAVOK 13/03 Q1030
  • 071250Z 31020KT CAVOK 13/04 Q1030
  • 071220Z 30018KT CAVOK 13/04 Q1030
  • 071150Z 31018KT 9999 FEW025 12/05 Q1029
  • 071120Z 30018KT 9999 FEW025 13/05 Q1029

TAF TAF ESTL
Valid from the 07 at 12:00 until the 07 at 15:00 UTC


071100Z 0712/0715 29015KT CAVOK
TEMPO 0712/0715 30018G28KT



MET'MAP, your aeronautical weather chart ! - Copyright ORBIFLY December 2007 - Disclaimer

ORBIFLY MET'MAP TEAM :

Programming & Development : Alexandra Zaïnal
Concept & original design : Baudouin d'Aumeries
Assistance for programming : Marc-Olivier Méhu
Technical & hardware support : Manuel Goepfert

Contact : metmap@orbifly.com




SOURCES & CREDITS :

   NOAA